createdAt,value
2018-09-04T00:02:01.754Z,14.97
2018-09-04T00:04:29.795Z,14.23
2018-09-04T00:06:57.832Z,13.83
2018-09-04T00:09:25.876Z,13.00
2018-09-04T00:11:53.918Z,13.60
2018-09-04T00:14:21.975Z,13.30
2018-09-04T00:16:50.015Z,17.13
2018-09-04T00:19:18.062Z,13.33
2018-09-04T00:21:46.089Z,13.90
2018-09-04T00:24:14.136Z,13.10
2018-09-04T00:26:42.170Z,14.50
2018-09-04T00:29:10.202Z,13.60
2018-09-04T00:31:38.245Z,13.90
2018-09-04T00:34:06.314Z,14.67
2018-09-04T00:36:34.358Z,14.53
2018-09-04T00:39:02.419Z,13.80
2018-09-04T00:41:30.466Z,14.63
2018-09-04T00:43:58.538Z,15.33
2018-09-04T00:46:26.591Z,14.00
2018-09-04T00:48:54.630Z,14.70
2018-09-04T00:51:22.666Z,15.97
2018-09-04T00:53:50.697Z,15.23
2018-09-04T00:56:18.741Z,14.83
2018-09-04T00:58:46.781Z,14.53
2018-09-04T01:01:14.835Z,14.33
2018-09-04T01:03:42.883Z,14.90
2018-09-04T01:06:10.929Z,15.00
2018-09-04T01:08:38.983Z,14.07
2018-09-04T01:11:07.029Z,16.80
2018-09-04T01:13:40.755Z,13.40
2018-09-04T01:16:08.809Z,13.47
2018-09-04T01:18:36.849Z,16.07
2018-09-04T01:21:04.914Z,14.73
2018-09-04T01:23:32.975Z,14.00
2018-09-04T01:26:01.009Z,14.13
2018-09-04T01:28:29.050Z,14.13
2018-09-04T01:30:57.118Z,15.00
2018-09-04T01:33:25.172Z,14.27
2018-09-04T01:35:53.227Z,14.53
2018-09-04T01:38:21.282Z,13.50
2018-09-04T01:40:49.329Z,13.67
2018-09-04T01:43:17.418Z,14.07
2018-09-04T01:45:45.474Z,14.37
2018-09-04T01:48:14.250Z,14.87
2018-09-04T01:50:42.864Z,15.97
2018-09-04T01:53:11.190Z,14.87
2018-09-04T01:55:39.217Z,14.33
2018-09-04T01:58:07.502Z,14.20
2018-09-04T02:00:35.554Z,14.33
2018-09-04T02:03:03.630Z,16.20
2018-09-04T02:05:31.692Z,15.87
2018-09-04T02:07:59.733Z,15.33
2018-09-04T02:10:27.791Z,14.90
2018-09-04T02:12:55.930Z,18.00
2018-09-04T02:15:23.986Z,16.27
2018-09-04T02:17:52.049Z,17.27
2018-09-04T02:20:20.097Z,15.30
2018-09-04T02:22:48.162Z,16.07
2018-09-04T02:25:16.214Z,15.00
2018-09-04T02:27:44.278Z,18.67
2018-09-04T02:30:12.326Z,16.43
2018-09-04T02:32:40.371Z,17.50
2018-09-04T02:35:08.442Z,16.67
2018-09-04T02:37:36.486Z,16.70
2018-09-04T02:40:04.703Z,15.67
2018-09-04T02:42:32.767Z,18.23
2018-09-04T02:45:00.815Z,15.07
2018-09-04T02:47:28.858Z,15.00
2018-09-04T02:49:56.919Z,15.10
2018-09-04T02:52:24.970Z,15.90
2018-09-04T02:54:53.022Z,16.57
2018-09-04T02:57:21.066Z,15.47
2018-09-04T02:59:49.133Z,15.60
2018-09-04T03:02:17.178Z,16.10
2018-09-04T03:04:45.246Z,15.47
2018-09-04T03:07:13.321Z,15.63
2018-09-04T03:09:41.383Z,14.50
2018-09-04T03:12:09.438Z,14.70
2018-09-04T03:14:37.487Z,17.13
2018-09-04T03:17:05.543Z,17.23
2018-09-04T03:19:33.594Z,19.03
2018-09-04T03:22:01.634Z,17.00
2018-09-04T03:24:29.718Z,17.07
2018-09-04T03:26:57.761Z,16.30
2018-09-04T03:29:25.809Z,18.63
2018-09-04T03:31:53.861Z,19.03
2018-09-04T03:34:21.928Z,20.03
2018-09-04T03:36:49.981Z,20.47
2018-09-04T03:39:18.037Z,19.87
2018-09-04T03:41:46.106Z,20.37
2018-09-04T03:44:14.172Z,20.23
2018-09-04T03:46:42.234Z,18.67
2018-09-04T03:49:10.294Z,17.03
2018-09-04T03:51:38.354Z,17.57
2018-09-04T03:54:06.518Z,16.63
2018-09-04T03:56:34.569Z,20.10
2018-09-04T03:59:02.645Z,19.03
2018-09-04T04:01:30.782Z,20.23
2018-09-04T04:03:58.794Z,20.07
2018-09-04T04:06:26.854Z,17.47
2018-09-04T04:08:54.902Z,16.67
2018-09-04T04:11:22.949Z,16.63
2018-09-04T04:13:50.995Z,15.50
2018-09-04T04:16:19.078Z,14.83
2018-09-04T04:18:47.125Z,14.00
2018-09-04T04:21:15.180Z,14.27
2018-09-04T04:23:43.256Z,16.33
2018-09-04T04:26:11.299Z,21.23
2018-09-04T04:28:40.270Z,18.40
2018-09-04T04:31:08.326Z,19.43
2018-09-04T04:33:36.370Z,18.30
2018-09-04T04:36:04.415Z,17.87
2018-09-04T04:38:32.470Z,18.37
2018-09-04T04:41:00.507Z,17.57
2018-09-04T04:43:28.569Z,17.43
2018-09-04T04:45:56.616Z,18.93
2018-09-04T04:48:24.785Z,19.23
2018-09-04T04:50:52.734Z,17.70
2018-09-04T04:53:20.782Z,18.33
2018-09-04T04:55:48.826Z,22.67
2018-09-04T04:58:16.887Z,19.23
2018-09-04T05:00:44.929Z,20.90
2018-09-04T05:03:13.011Z,20.63
2018-09-04T05:05:41.058Z,21.37
2018-09-04T05:08:09.105Z,20.60
2018-09-04T05:10:37.148Z,24.63
2018-09-04T05:13:05.302Z,24.50
2018-09-04T05:15:33.352Z,19.90
2018-09-04T05:18:01.394Z,19.27
2018-09-04T05:20:29.938Z,19.47
2018-09-04T05:22:58.021Z,19.63
2018-09-04T05:25:26.150Z,22.43
2018-09-04T05:27:54.210Z,19.13
2018-09-04T05:30:22.269Z,19.50
2018-09-04T05:32:54.561Z,18.93
2018-09-04T05:35:22.628Z,18.07
2018-09-04T05:37:50.666Z,17.47
2018-09-04T05:40:18.694Z,20.60
2018-09-04T05:42:51.670Z,18.20
2018-09-04T05:45:21.061Z,17.80
2018-09-04T05:47:49.090Z,20.60
2018-09-04T05:50:17.118Z,16.67
2018-09-04T05:52:45.270Z,17.83
2018-09-04T05:55:13.379Z,17.03
2018-09-04T05:57:41.365Z,18.23
2018-09-04T06:00:12.450Z,16.90
2018-09-04T06:02:40.486Z,17.10
2018-09-04T06:05:08.522Z,18.67
2018-09-04T06:07:36.591Z,17.60
2018-09-04T06:10:04.601Z,18.10
2018-09-04T06:12:32.646Z,17.40
2018-09-04T06:15:00.692Z,18.93
2018-09-04T06:17:28.739Z,17.73
2018-09-04T06:19:56.819Z,18.70
2018-09-04T06:22:24.826Z,19.07
2018-09-04T06:24:53.370Z,17.83
2018-09-04T06:27:21.410Z,18.13
2018-09-04T06:29:49.452Z,18.07
2018-09-04T06:32:17.492Z,16.30
2018-09-04T06:34:45.547Z,16.47
2018-09-04T06:37:13.580Z,15.00
2018-09-04T06:39:41.622Z,14.20
2018-09-04T06:42:09.662Z,15.50
2018-09-04T06:44:37.714Z,14.97
2018-09-04T06:47:05.973Z,18.07
2018-09-04T06:49:34.178Z,15.83
2018-09-04T06:52:02.226Z,18.17
2018-09-04T06:54:30.619Z,19.40
2018-09-04T06:56:58.674Z,18.23
2018-09-04T06:59:26.718Z,17.57
2018-09-04T07:01:54.766Z,19.43
2018-09-04T07:04:22.813Z,20.43
2018-09-04T07:06:50.854Z,17.23
2018-09-04T07:09:18.889Z,16.03
2018-09-04T07:11:46.988Z,18.17
2018-09-04T07:14:15.016Z,16.23
2018-09-04T07:16:43.053Z,15.17
2018-09-04T07:19:15.774Z,19.33
2018-09-04T07:21:43.928Z,15.07
2018-09-04T07:24:12.410Z,15.27
2018-09-04T07:26:40.468Z,14.53
2018-09-04T07:29:08.619Z,16.30
2018-09-04T07:31:36.673Z,16.57
2018-09-04T07:34:04.858Z,16.27
2018-09-04T07:36:32.991Z,17.10
2018-09-04T07:39:00.965Z,16.77
2018-09-04T07:41:29.062Z,15.57
2018-09-04T07:43:57.114Z,14.73
2018-09-04T07:46:25.170Z,15.53
2018-09-04T07:48:53.203Z,13.67
2018-09-04T07:51:21.237Z,14.70
2018-09-04T07:53:49.329Z,13.93
2018-09-04T07:56:17.305Z,14.70
2018-09-04T07:58:45.359Z,13.90
2018-09-04T08:01:13.397Z,14.90
2018-09-04T08:03:41.430Z,15.13
2018-09-04T08:06:09.474Z,15.53
2018-09-04T08:08:37.711Z,16.40
2018-09-04T08:11:05.946Z,16.10
2018-09-04T08:13:33.986Z,15.83
2018-09-04T08:16:02.035Z,16.40
2018-09-04T08:18:30.075Z,15.47
2018-09-04T08:20:58.474Z,16.63
2018-09-04T08:26:00.948Z,16.20
2018-09-04T08:28:28.979Z,17.60
2018-09-04T08:30:57.010Z,19.20
2018-09-04T08:33:25.103Z,19.67
2018-09-04T08:35:53.092Z,21.13
2018-09-04T08:38:21.122Z,18.97
2018-09-04T08:40:49.174Z,17.33
2018-09-04T08:43:17.226Z,19.50
2018-09-04T08:45:45.278Z,19.63
2018-09-04T08:48:20.764Z,19.90
2018-09-04T08:50:48.782Z,20.83
2018-09-04T08:53:17.523Z,20.13
2018-09-04T08:55:45.730Z,21.80
2018-09-04T08:58:13.858Z,20.80
2018-09-04T09:00:41.899Z,21.70
2018-09-04T09:03:09.930Z,19.90
2018-09-04T09:05:38.018Z,20.07
2018-09-04T09:10:33.565Z,18.40
2018-09-04T09:13:01.594Z,19.53
2018-09-04T09:15:29.641Z,19.73
2018-09-04T09:20:25.059Z,19.10
2018-09-04T09:22:53.108Z,21.27
2018-09-04T09:25:21.157Z,22.70
2018-09-04T09:27:49.197Z,21.50
2018-09-04T09:35:12.282Z,19.53
2018-09-04T09:37:40.328Z,22.53
2018-09-04T09:40:08.370Z,21.13
2018-09-04T09:42:36.415Z,20.20
2018-09-04T09:52:26.645Z,18.57
2018-09-04T09:54:54.661Z,17.47
2018-09-04T09:57:22.930Z,17.57
2018-09-04T09:59:51.003Z,17.97
2018-09-04T10:02:19.959Z,19.30
2018-09-04T10:04:48.225Z,21.25
2018-09-04T10:07:16.284Z,18.70
2018-09-04T10:09:44.338Z,17.27
2018-09-04T10:12:12.346Z,15.80
2018-09-04T10:19:35.999Z,16.60
2018-09-04T10:29:26.526Z,15.07
2018-09-04T10:31:54.579Z,14.73
2018-09-04T10:34:22.630Z,17.47
2018-09-04T10:39:23.418Z,18.40
2018-09-04T10:41:51.458Z,17.77
2018-09-04T10:49:14.270Z,18.33
2018-09-04T10:51:42.325Z,16.47
2018-09-04T10:54:10.366Z,16.07
2018-09-04T10:56:45.207Z,16.17
2018-09-04T10:59:13.262Z,13.43
2018-09-04T11:01:41.302Z,13.77
2018-09-04T11:04:09.337Z,12.67
2018-09-04T11:06:37.375Z,13.73
2018-09-04T11:09:09.345Z,12.53
2018-09-04T11:11:37.754Z,12.40
2018-09-04T11:14:05.826Z,12.63
2018-09-04T11:16:33.882Z,13.13
2018-09-04T11:19:01.922Z,14.63
2018-09-04T11:21:29.978Z,11.88
2018-09-04T11:23:58.038Z,13.30
2018-09-04T11:26:26.062Z,12.93
2018-09-04T11:28:57.791Z,12.50
2018-09-04T11:31:25.838Z,14.37
2018-09-04T11:33:53.881Z,13.20
2018-09-04T11:36:21.918Z,14.23
2018-09-04T11:38:49.975Z,14.40
2018-09-04T11:41:18.029Z,15.13
2018-09-04T11:43:46.083Z,14.25
2018-09-04T11:46:14.133Z,12.63
2018-09-04T11:48:42.182Z,14.20
2018-09-04T11:51:11.424Z,13.47
2018-09-04T11:53:39.498Z,14.37
2018-09-04T11:56:07.570Z,14.17
2018-09-04T11:58:35.633Z,12.80
2018-09-04T12:01:07.951Z,16.27
2018-09-04T12:03:36.006Z,13.18
2018-09-04T12:06:04.058Z,15.72
2018-09-04T12:08:32.126Z,12.88
2018-09-04T12:11:00.169Z,14.55
2018-09-04T12:13:31.713Z,14.28
2018-09-04T12:16:00.372Z,12.13
2018-09-04T12:18:28.938Z,11.28
2018-09-04T12:20:59.394Z,11.60
2018-09-04T12:23:27.414Z,10.90
2018-09-04T12:25:56.706Z,11.63
2018-09-04T12:28:24.752Z,12.18
2018-09-04T12:30:52.813Z,11.85
2018-09-04T12:33:20.878Z,12.78
2018-09-04T12:35:48.922Z,11.45
2018-09-04T12:38:18.305Z,10.00
2018-09-04T12:40:46.787Z,10.23
2018-09-04T12:43:14.822Z,9.20
2018-09-04T12:45:53.751Z,31.73
2018-09-04T12:48:22.737Z,11.05
2018-09-04T12:50:51.329Z,9.08
2018-09-04T13:03:13.301Z,9.30
2018-09-04T13:17:58.629Z,11.03
2018-09-04T13:57:21.391Z,10.80
2018-09-04T14:02:16.802Z,8.83
2018-09-04T14:04:45.082Z,8.03
2018-09-04T14:14:35.891Z,8.75
2018-09-04T14:41:38.154Z,5.97
2018-09-04T14:44:06.401Z,6.17
2018-09-04T14:46:34.564Z,8.20
2018-09-04T14:49:02.925Z,8.50
2018-09-04T14:51:30.962Z,8.35
2018-09-04T14:53:58.985Z,7.33
2018-09-04T14:56:27.064Z,8.50
2018-09-04T14:58:55.087Z,7.80
2018-09-04T15:01:23.129Z,8.15
2018-09-04T15:03:51.170Z,7.67
2018-09-04T15:06:19.255Z,7.42
2018-09-04T15:08:47.225Z,7.17
2018-09-04T15:11:15.283Z,7.20
2018-09-04T15:13:43.338Z,7.42
2018-09-04T15:16:11.374Z,6.95
2018-09-04T15:18:39.415Z,6.92
2018-09-04T15:21:07.471Z,8.50
2018-09-04T15:26:02.897Z,7.87
2018-09-04T15:28:30.951Z,6.62
2018-09-04T15:30:59.006Z,7.45
2018-09-04T15:33:27.050Z,6.80
2018-09-04T15:35:55.096Z,6.75
2018-09-04T15:38:23.121Z,7.05
2018-09-04T15:40:51.158Z,7.53
2018-09-04T15:43:19.222Z,8.13
2018-09-04T15:45:47.272Z,7.80
2018-09-04T15:48:15.310Z,7.72
2018-09-04T15:50:43.342Z,8.15
2018-09-04T15:58:06.276Z,7.80
2018-09-04T16:00:34.301Z,6.33
2018-09-04T16:03:02.350Z,7.62
2018-09-04T16:05:30.386Z,7.50
2018-09-04T16:07:58.420Z,7.50
2018-09-04T16:10:26.472Z,7.45
2018-09-04T16:12:54.490Z,7.72
2018-09-04T16:15:22.519Z,6.85
2018-09-04T16:17:50.611Z,8.20
2018-09-04T16:20:18.641Z,7.62
2018-09-04T16:22:46.674Z,9.20
2018-09-04T16:25:14.703Z,8.08
2018-09-04T16:27:42.738Z,7.55
2018-09-04T16:30:10.775Z,7.62
2018-09-04T16:32:38.818Z,8.40
2018-09-04T16:35:06.867Z,8.83
2018-09-04T16:37:34.924Z,8.20
2018-09-04T16:40:02.971Z,8.38
2018-09-04T16:42:31.010Z,7.85
2018-09-04T16:44:59.067Z,9.40
2018-09-04T16:47:27.267Z,7.87
2018-09-04T16:49:55.323Z,8.40
2018-09-04T16:52:23.352Z,8.68
2018-09-04T16:54:51.402Z,8.70
2018-09-04T16:57:19.478Z,9.18
2018-09-04T16:59:47.498Z,8.68
2018-09-04T17:02:15.538Z,8.20
2018-09-04T17:04:43.860Z,8.58
2018-09-04T17:07:11.910Z,8.28
2018-09-04T17:09:39.957Z,8.68
2018-09-04T17:12:08.002Z,8.28
2018-09-04T17:14:36.038Z,8.18
2018-09-04T17:19:31.462Z,9.18
2018-09-04T17:34:16.452Z,9.00
2018-09-04T17:56:24.158Z,9.65
2018-09-04T18:01:19.584Z,9.27
2018-09-04T18:06:15.014Z,10.00
2018-09-04T18:16:05.387Z,9.00
2018-09-04T18:21:00.814Z,9.10
2018-09-04T18:23:28.873Z,9.20
2018-09-04T18:28:24.445Z,12.50
2018-09-04T18:30:52.458Z,10.23
2018-09-04T18:33:20.491Z,10.53
2018-09-04T18:35:48.537Z,10.53
2018-09-04T18:38:16.581Z,10.57
2018-09-04T18:43:12.042Z,12.90
2018-09-04T18:45:46.782Z,11.77
2018-09-04T18:48:14.955Z,11.23
2018-09-04T18:50:43.418Z,10.97
2018-09-04T18:53:11.455Z,11.67
2018-09-04T18:55:39.521Z,12.60
2018-09-04T18:58:07.994Z,11.50
2018-09-04T19:00:36.030Z,12.10
2018-09-04T19:03:04.057Z,12.60
2018-09-04T19:05:32.305Z,11.93
2018-09-04T19:08:00.582Z,12.03
2018-09-04T19:10:28.632Z,12.27
2018-09-04T19:12:56.666Z,11.10
2018-09-04T19:15:24.739Z,12.73
2018-09-04T19:17:52.779Z,12.40
2018-09-04T19:20:21.026Z,11.37
2018-09-04T19:22:49.058Z,10.73
2018-09-04T19:25:17.157Z,10.80
2018-09-04T19:27:45.202Z,11.13
2018-09-04T19:30:13.465Z,11.50
2018-09-04T19:32:41.531Z,12.73
2018-09-04T19:35:09.584Z,12.63
2018-09-04T19:37:37.777Z,12.97
2018-09-04T19:40:05.954Z,12.63
2018-09-04T19:42:34.055Z,12.63
2018-09-04T19:45:02.106Z,15.47
2018-09-04T19:47:30.171Z,12.50
2018-09-04T19:49:58.309Z,13.23
2018-09-04T19:52:26.317Z,14.50
2018-09-04T19:54:54.362Z,14.03
2018-09-04T19:57:22.409Z,16.07
2018-09-04T19:59:50.484Z,14.00
2018-09-04T20:02:18.522Z,15.37
2018-09-04T20:04:46.578Z,14.27
2018-09-04T20:07:14.639Z,14.10
2018-09-04T20:09:42.678Z,14.10
2018-09-04T20:12:10.766Z,14.73
2018-09-04T20:14:38.822Z,14.17
2018-09-04T20:17:06.974Z,13.30
2018-09-04T20:19:35.041Z,13.00
2018-09-04T20:22:03.082Z,12.70
2018-09-04T20:24:31.266Z,12.30
2018-09-04T20:26:59.322Z,13.63
2018-09-04T20:29:27.908Z,17.07
2018-09-04T20:31:55.906Z,13.80
2018-09-04T20:34:23.978Z,15.13
2018-09-04T20:36:52.122Z,12.97
2018-09-04T20:39:20.182Z,13.67
2018-09-04T20:41:48.220Z,13.03
2018-09-04T20:44:16.287Z,16.20
2018-09-04T20:46:44.335Z,19.97
2018-09-04T20:49:12.414Z,19.63
2018-09-04T20:51:40.462Z,19.87
2018-09-04T20:54:08.498Z,14.47
2018-09-04T20:56:36.554Z,15.73
2018-09-04T20:59:15.919Z,13.20
2018-09-04T21:01:55.163Z,14.40
2018-09-04T21:04:34.565Z,13.80
2018-09-04T21:07:01.722Z,14.23
2018-09-04T21:09:39.505Z,14.43
2018-09-04T21:12:08.047Z,14.97
2018-09-04T21:14:36.215Z,14.00
2018-09-04T21:17:04.278Z,13.80
2018-09-04T21:19:32.700Z,17.30
2018-09-04T21:22:00.795Z,15.70
2018-09-04T21:24:28.842Z,14.93
2018-09-04T21:26:57.350Z,14.93
2018-09-04T21:29:25.474Z,16.27
2018-09-04T21:31:53.594Z,15.63
2018-09-04T21:34:21.646Z,15.87
2018-09-04T21:36:49.836Z,15.50
2018-09-04T21:39:17.889Z,16.00
2018-09-04T21:41:45.974Z,16.10
2018-09-04T21:44:14.025Z,16.13
2018-09-04T21:46:42.134Z,16.20
2018-09-04T21:49:10.351Z,15.37
2018-09-04T21:51:38.410Z,15.20
2018-09-04T21:54:06.442Z,16.70
2018-09-04T21:56:34.492Z,16.73
2018-09-04T21:59:02.566Z,15.13
2018-09-04T22:01:30.611Z,15.80
2018-09-04T22:03:58.703Z,15.43
2018-09-04T22:06:26.765Z,16.63
2018-09-04T22:08:54.799Z,15.93
2018-09-04T22:11:22.854Z,16.17
2018-09-04T22:13:50.910Z,15.83
2018-09-04T22:16:18.973Z,14.60
2018-09-04T22:18:47.465Z,15.60
2018-09-04T22:21:15.518Z,19.13
2018-09-04T22:23:43.570Z,15.83
2018-09-04T22:26:11.629Z,16.97
2018-09-04T22:28:39.697Z,15.87
2018-09-04T22:31:07.806Z,15.77
2018-09-04T22:33:35.854Z,15.07
2018-09-04T22:36:05.310Z,15.67
2018-09-04T22:38:33.350Z,14.97
2018-09-04T22:41:01.397Z,15.17
2018-09-04T22:43:29.434Z,14.93
2018-09-04T22:45:57.473Z,16.17
2018-09-04T22:48:25.517Z,16.47
2018-09-04T22:50:59.162Z,15.37
2018-09-04T22:53:27.209Z,16.43
2018-09-04T22:55:55.678Z,17.00
2018-09-04T22:58:23.714Z,18.30
2018-09-04T23:00:51.757Z,16.73
2018-09-04T23:03:19.812Z,17.20
2018-09-04T23:05:47.849Z,17.13
2018-09-04T23:08:15.916Z,17.40
2018-09-04T23:10:44.542Z,18.10
2018-09-04T23:13:13.591Z,18.07
2018-09-04T23:15:42.657Z,18.80
2018-09-04T23:18:11.323Z,18.23
2018-09-04T23:20:39.394Z,17.83
2018-09-04T23:23:07.437Z,17.43
2018-09-04T23:25:35.516Z,18.87
2018-09-04T23:28:03.556Z,18.97
2018-09-04T23:30:31.809Z,19.47
2018-09-04T23:32:59.861Z,18.53
2018-09-04T23:35:27.942Z,19.63
2018-09-04T23:37:55.999Z,19.43
2018-09-04T23:40:24.050Z,20.20
2018-09-04T23:42:52.090Z,19.80
2018-09-04T23:45:20.151Z,22.23
2018-09-04T23:47:48.262Z,20.93
2018-09-04T23:50:16.315Z,20.67
2018-09-04T23:52:44.382Z,20.80
2018-09-04T23:55:12.447Z,20.47
2018-09-04T23:57:40.538Z,24.10
